sensor_id;sensor_type;location;lat;lon;timestamp;P1;durP1;ratioP1;P2;durP2;ratioP2
7330;SDS011;3706;49.198;7.064;2022-12-22T00:01:47;3.67;;;2.00;;
7330;SDS011;3706;49.198;7.064;2022-12-22T00:04:34;3.70;;;1.70;;
7330;SDS011;3706;49.198;7.064;2022-12-22T00:07:18;3.77;;;2.20;;
7330;SDS011;3706;49.198;7.064;2022-12-22T00:10:02;4.53;;;2.20;;
7330;SDS011;3706;49.198;7.064;2022-12-22T00:12:47;3.27;;;1.90;;
7330;SDS011;3706;49.198;7.064;2022-12-22T00:15:33;2.53;;;1.90;;
7330;SDS011;3706;49.198;7.064;2022-12-22T00:18:19;2.43;;;1.80;;
7330;SDS011;3706;49.198;7.064;2022-12-22T00:21:03;2.50;;;2.20;;
7330;SDS011;3706;49.198;7.064;2022-12-22T00:23:48;7.50;;;2.03;;
7330;SDS011;3706;49.198;7.064;2022-12-22T00:26:33;2.70;;;2.40;;
7330;SDS011;3706;49.198;7.064;2022-12-22T00:29:18;3.50;;;2.30;;
7330;SDS011;3706;49.198;7.064;2022-12-22T00:32:03;2.20;;;2.00;;
7330;SDS011;3706;49.198;7.064;2022-12-22T00:34:49;2.63;;;1.63;;
7330;SDS011;3706;49.198;7.064;2022-12-22T00:37:35;5.13;;;2.20;;
7330;SDS011;3706;49.198;7.064;2022-12-22T00:40:21;4.93;;;2.30;;
7330;SDS011;3706;49.198;7.064;2022-12-22T00:43:07;2.93;;;1.83;;
7330;SDS011;3706;49.198;7.064;2022-12-22T00:45:51;3.30;;;2.07;;
7330;SDS011;3706;49.198;7.064;2022-12-22T00:48:37;2.73;;;1.80;;
7330;SDS011;3706;49.198;7.064;2022-12-22T00:51:25;2.33;;;1.90;;
7330;SDS011;3706;49.198;7.064;2022-12-22T00:54:10;2.10;;;1.90;;
7330;SDS011;3706;49.198;7.064;2022-12-22T00:56:56;3.90;;;1.87;;
7330;SDS011;3706;49.198;7.064;2022-12-22T00:59:42;2.97;;;2.20;;
7330;SDS011;3706;49.198;7.064;2022-12-22T01:02:26;2.53;;;1.70;;
7330;SDS011;3706;49.198;7.064;2022-12-22T01:05:10;2.90;;;2.00;;
7330;SDS011;3706;49.198;7.064;2022-12-22T01:07:56;2.37;;;1.90;;
7330;SDS011;3706;49.198;7.064;2022-12-22T01:10:40;3.30;;;2.00;;
7330;SDS011;3706;49.198;7.064;2022-12-22T01:13:25;3.40;;;1.90;;
7330;SDS011;3706;49.198;7.064;2022-12-22T01:16:10;2.00;;;1.70;;
7330;SDS011;3706;49.198;7.064;2022-12-22T01:18:55;3.20;;;2.10;;
7330;SDS011;3706;49.198;7.064;2022-12-22T01:21:40;4.03;;;2.13;;
7330;SDS011;3706;49.198;7.064;2022-12-22T01:24:26;3.97;;;2.30;;
7330;SDS011;3706;49.198;7.064;2022-12-22T01:27:12;2.70;;;2.07;;
7330;SDS011;3706;49.198;7.064;2022-12-22T01:29:57;2.47;;;1.77;;
7330;SDS011;3706;49.198;7.064;2022-12-22T01:32:41;2.30;;;1.73;;
7330;SDS011;3706;49.198;7.064;2022-12-22T01:35:27;4.93;;;2.10;;
7330;SDS011;3706;49.198;7.064;2022-12-22T01:38:12;3.40;;;2.10;;
7330;SDS011;3706;49.198;7.064;2022-12-22T01:40:58;3.07;;;1.80;;
7330;SDS011;3706;49.198;7.064;2022-12-22T01:43:44;2.30;;;1.90;;
7330;SDS011;3706;49.198;7.064;2022-12-22T01:46:29;2.87;;;1.70;;
7330;SDS011;3706;49.198;7.064;2022-12-22T01:49:16;2.93;;;1.60;;
7330;SDS011;3706;49.198;7.064;2022-12-22T01:52:03;2.93;;;1.77;;
7330;SDS011;3706;49.198;7.064;2022-12-22T01:54:50;2.83;;;1.93;;
7330;SDS011;3706;49.198;7.064;2022-12-22T01:57:36;5.07;;;2.00;;
7330;SDS011;3706;49.198;7.064;2022-12-22T02:00:21;2.53;;;2.00;;
7330;SDS011;3706;49.198;7.064;2022-12-22T02:03:13;3.87;;;1.97;;
7330;SDS011;3706;49.198;7.064;2022-12-22T02:06:00;2.63;;;1.80;;
7330;SDS011;3706;49.198;7.064;2022-12-22T02:08:57;4.37;;;2.10;;
7330;SDS011;3706;49.198;7.064;2022-12-22T02:11:51;4.13;;;2.53;;
7330;SDS011;3706;49.198;7.064;2022-12-22T02:14:45;1.87;;;1.60;;
7330;SDS011;3706;49.198;7.064;2022-12-22T02:17:42;5.97;;;2.40;;
7330;SDS011;3706;49.198;7.064;2022-12-22T02:20:35;5.00;;;2.63;;
7330;SDS011;3706;49.198;7.064;2022-12-22T02:23:25;4.30;;;1.97;;
7330;SDS011;3706;49.198;7.064;2022-12-22T02:26:30;2.90;;;2.10;;
7330;SDS011;3706;49.198;7.064;2022-12-22T02:29:17;3.80;;;1.70;;
7330;SDS011;3706;49.198;7.064;2022-12-22T02:32:05;2.90;;;2.00;;
7330;SDS011;3706;49.198;7.064;2022-12-22T02:34:49;3.43;;;2.50;;
7330;SDS011;3706;49.198;7.064;2022-12-22T02:37:35;3.30;;;1.70;;
7330;SDS011;3706;49.198;7.064;2022-12-22T02:40:26;6.77;;;2.80;;
7330;SDS011;3706;49.198;7.064;2022-12-22T02:43:20;5.03;;;2.00;;
7330;SDS011;3706;49.198;7.064;2022-12-22T02:46:13;4.53;;;2.20;;
7330;SDS011;3706;49.198;7.064;2022-12-22T02:49:03;5.80;;;2.17;;
7330;SDS011;3706;49.198;7.064;2022-12-22T02:51:57;6.27;;;2.67;;
7330;SDS011;3706;49.198;7.064;2022-12-22T02:54:48;4.17;;;1.90;;
7330;SDS011;3706;49.198;7.064;2022-12-22T02:57:32;6.13;;;2.43;;
7330;SDS011;3706;49.198;7.064;2022-12-22T03:00:18;4.17;;;2.10;;
7330;SDS011;3706;49.198;7.064;2022-12-22T03:03:03;4.97;;;2.30;;
7330;SDS011;3706;49.198;7.064;2022-12-22T03:05:47;4.53;;;1.77;;
7330;SDS011;3706;49.198;7.064;2022-12-22T03:08:31;5.60;;;2.20;;
7330;SDS011;3706;49.198;7.064;2022-12-22T03:11:16;3.40;;;1.67;;
7330;SDS011;3706;49.198;7.064;2022-12-22T03:14:00;2.17;;;1.60;;
7330;SDS011;3706;49.198;7.064;2022-12-22T03:16:45;3.00;;;1.60;;
7330;SDS011;3706;49.198;7.064;2022-12-22T03:19:30;5.77;;;2.00;;
7330;SDS011;3706;49.198;7.064;2022-12-22T03:22:14;2.17;;;1.40;;
7330;SDS011;3706;49.198;7.064;2022-12-22T03:24:58;2.63;;;1.60;;
7330;SDS011;3706;49.198;7.064;2022-12-22T03:27:42;1.77;;;1.43;;
7330;SDS011;3706;49.198;7.064;2022-12-22T03:30:09;5.03;;;2.07;;
7330;SDS011;3706;49.198;7.064;2022-12-22T03:32:38;1.83;;;1.20;;
7330;SDS011;3706;49.198;7.064;2022-12-22T03:35:05;2.10;;;1.47;;
7330;SDS011;3706;49.198;7.064;2022-12-22T03:37:32;3.93;;;1.90;;
7330;SDS011;3706;49.198;7.064;2022-12-22T03:39:59;2.27;;;1.50;;
7330;SDS011;3706;49.198;7.064;2022-12-22T03:42:26;3.40;;;1.57;;
7330;SDS011;3706;49.198;7.064;2022-12-22T03:45:10;2.20;;;1.73;;
7330;SDS011;3706;49.198;7.064;2022-12-22T03:47:56;2.93;;;1.87;;
7330;SDS011;3706;49.198;7.064;2022-12-22T03:50:23;5.30;;;1.67;;
7330;SDS011;3706;49.198;7.064;2022-12-22T03:52:50;3.87;;;1.90;;
7330;SDS011;3706;49.198;7.064;2022-12-22T03:55:17;4.87;;;2.30;;
7330;SDS011;3706;49.198;7.064;2022-12-22T03:57:43;2.60;;;1.57;;
7330;SDS011;3706;49.198;7.064;2022-12-22T04:00:11;6.43;;;1.60;;
7330;SDS011;3706;49.198;7.064;2022-12-22T04:02:38;2.93;;;1.70;;
7330;SDS011;3706;49.198;7.064;2022-12-22T04:05:07;3.80;;;1.80;;
7330;SDS011;3706;49.198;7.064;2022-12-22T04:07:34;4.80;;;2.13;;
7330;SDS011;3706;49.198;7.064;2022-12-22T04:10:01;2.30;;;1.37;;
7330;SDS011;3706;49.198;7.064;2022-12-22T04:12:46;2.57;;;1.63;;
7330;SDS011;3706;49.198;7.064;2022-12-22T04:15:22;4.87;;;1.70;;
7330;SDS011;3706;49.198;7.064;2022-12-22T04:17:50;3.33;;;1.70;;
7330;SDS011;3706;49.198;7.064;2022-12-22T04:20:19;2.17;;;1.43;;
7330;SDS011;3706;49.198;7.064;2022-12-22T04:22:47;2.73;;;1.70;;
7330;SDS011;3706;49.198;7.064;2022-12-22T04:25:14;3.07;;;2.00;;
7330;SDS011;3706;49.198;7.064;2022-12-22T04:27:41;2.53;;;1.63;;
7330;SDS011;3706;49.198;7.064;2022-12-22T04:30:09;4.50;;;1.50;;
7330;SDS011;3706;49.198;7.064;2022-12-22T04:32:36;3.77;;;1.53;;
7330;SDS011;3706;49.198;7.064;2022-12-22T04:35:04;2.20;;;1.30;;
7330;SDS011;3706;49.198;7.064;2022-12-22T04:37:33;2.40;;;1.50;;
7330;SDS011;3706;49.198;7.064;2022-12-22T04:40:00;2.57;;;1.80;;
7330;SDS011;3706;49.198;7.064;2022-12-22T04:42:28;3.90;;;1.70;;
7330;SDS011;3706;49.198;7.064;2022-12-22T04:44:54;3.47;;;1.93;;
7330;SDS011;3706;49.198;7.064;2022-12-22T04:47:21;3.17;;;1.83;;
7330;SDS011;3706;49.198;7.064;2022-12-22T04:49:48;4.57;;;2.17;;
7330;SDS011;3706;49.198;7.064;2022-12-22T04:52:15;6.20;;;2.43;;
7330;SDS011;3706;49.198;7.064;2022-12-22T04:54:43;6.20;;;2.07;;
7330;SDS011;3706;49.198;7.064;2022-12-22T04:57:10;8.67;;;3.00;;
7330;SDS011;3706;49.198;7.064;2022-12-22T04:59:37;7.47;;;2.50;;
7330;SDS011;3706;49.198;7.064;2022-12-22T05:02:04;10.20;;;2.80;;
7330;SDS011;3706;49.198;7.064;2022-12-22T05:04:31;7.40;;;2.57;;
7330;SDS011;3706;49.198;7.064;2022-12-22T05:06:58;6.67;;;2.53;;
7330;SDS011;3706;49.198;7.064;2022-12-22T05:09:25;10.67;;;3.37;;
7330;SDS011;3706;49.198;7.064;2022-12-22T05:11:53;8.00;;;2.40;;
7330;SDS011;3706;49.198;7.064;2022-12-22T05:14:20;10.10;;;2.93;;
7330;SDS011;3706;49.198;7.064;2022-12-22T05:16:47;7.47;;;2.30;;
7330;SDS011;3706;49.198;7.064;2022-12-22T05:19:14;5.57;;;2.13;;
7330;SDS011;3706;49.198;7.064;2022-12-22T05:21:41;9.50;;;2.77;;
7330;SDS011;3706;49.198;7.064;2022-12-22T05:24:07;6.47;;;2.40;;
7330;SDS011;3706;49.198;7.064;2022-12-22T05:26:34;6.93;;;2.27;;
7330;SDS011;3706;49.198;7.064;2022-12-22T05:29:03;6.40;;;2.13;;
7330;SDS011;3706;49.198;7.064;2022-12-22T05:31:29;6.47;;;2.60;;
7330;SDS011;3706;49.198;7.064;2022-12-22T05:33:56;4.23;;;2.17;;
7330;SDS011;3706;49.198;7.064;2022-12-22T05:36:23;4.93;;;2.40;;
7330;SDS011;3706;49.198;7.064;2022-12-22T05:38:50;9.33;;;2.77;;
7330;SDS011;3706;49.198;7.064;2022-12-22T05:41:17;5.17;;;2.17;;
7330;SDS011;3706;49.198;7.064;2022-12-22T05:43:44;6.50;;;2.27;;
7330;SDS011;3706;49.198;7.064;2022-12-22T05:46:12;6.37;;;2.73;;
7330;SDS011;3706;49.198;7.064;2022-12-22T05:48:39;3.63;;;1.80;;
7330;SDS011;3706;49.198;7.064;2022-12-22T05:51:06;10.77;;;2.10;;
7330;SDS011;3706;49.198;7.064;2022-12-22T05:53:34;7.10;;;2.57;;
7330;SDS011;3706;49.198;7.064;2022-12-22T05:56:01;6.03;;;2.53;;
7330;SDS011;3706;49.198;7.064;2022-12-22T05:58:28;12.17;;;2.97;;
7330;SDS011;3706;49.198;7.064;2022-12-22T06:00:55;5.43;;;2.50;;
7330;SDS011;3706;49.198;7.064;2022-12-22T06:03:24;10.93;;;3.53;;
7330;SDS011;3706;49.198;7.064;2022-12-22T06:05:52;5.97;;;2.87;;
7330;SDS011;3706;49.198;7.064;2022-12-22T06:08:19;7.87;;;3.20;;
7330;SDS011;3706;49.198;7.064;2022-12-22T06:10:46;5.47;;;2.10;;
7330;SDS011;3706;49.198;7.064;2022-12-22T06:13:13;9.13;;;3.00;;
7330;SDS011;3706;49.198;7.064;2022-12-22T06:15:40;7.33;;;2.60;;
7330;SDS011;3706;49.198;7.064;2022-12-22T06:18:07;10.03;;;2.60;;
7330;SDS011;3706;49.198;7.064;2022-12-22T06:20:36;7.27;;;2.40;;
7330;SDS011;3706;49.198;7.064;2022-12-22T06:23:02;14.03;;;2.77;;
7330;SDS011;3706;49.198;7.064;2022-12-22T06:25:29;6.33;;;2.23;;
7330;SDS011;3706;49.198;7.064;2022-12-22T06:27:56;7.77;;;2.80;;
7330;SDS011;3706;49.198;7.064;2022-12-22T06:30:23;10.70;;;2.77;;
7330;SDS011;3706;49.198;7.064;2022-12-22T06:32:50;6.50;;;2.93;;
7330;SDS011;3706;49.198;7.064;2022-12-22T06:35:17;6.20;;;2.90;;
7330;SDS011;3706;49.198;7.064;2022-12-22T06:37:45;15.27;;;3.20;;
7330;SDS011;3706;49.198;7.064;2022-12-22T06:40:12;10.07;;;3.10;;
7330;SDS011;3706;49.198;7.064;2022-12-22T06:42:39;6.50;;;2.60;;
7330;SDS011;3706;49.198;7.064;2022-12-22T06:45:24;8.90;;;2.70;;
7330;SDS011;3706;49.198;7.064;2022-12-22T06:47:50;10.80;;;2.93;;
7330;SDS011;3706;49.198;7.064;2022-12-22T06:50:17;12.63;;;3.40;;
7330;SDS011;3706;49.198;7.064;2022-12-22T06:52:46;12.07;;;3.77;;
7330;SDS011;3706;49.198;7.064;2022-12-22T06:55:12;13.00;;;3.23;;
7330;SDS011;3706;49.198;7.064;2022-12-22T06:57:39;7.70;;;2.70;;
7330;SDS011;3706;49.198;7.064;2022-12-22T07:00:07;13.50;;;3.50;;
7330;SDS011;3706;49.198;7.064;2022-12-22T07:02:35;14.90;;;3.63;;
7330;SDS011;3706;49.198;7.064;2022-12-22T07:05:02;11.00;;;2.73;;
7330;SDS011;3706;49.198;7.064;2022-12-22T07:07:29;15.67;;;3.60;;
7330;SDS011;3706;49.198;7.064;2022-12-22T07:09:57;13.17;;;2.90;;
7330;SDS011;3706;49.198;7.064;2022-12-22T07:12:24;14.43;;;3.07;;
7330;SDS011;3706;49.198;7.064;2022-12-22T07:14:51;10.03;;;3.00;;
7330;SDS011;3706;49.198;7.064;2022-12-22T07:17:18;17.87;;;2.90;;
7330;SDS011;3706;49.198;7.064;2022-12-22T07:19:45;16.73;;;2.83;;
7330;SDS011;3706;49.198;7.064;2022-12-22T07:22:12;15.73;;;3.47;;
7330;SDS011;3706;49.198;7.064;2022-12-22T07:24:38;12.80;;;4.17;;
7330;SDS011;3706;49.198;7.064;2022-12-22T07:27:07;14.43;;;3.37;;
7330;SDS011;3706;49.198;7.064;2022-12-22T07:29:34;21.37;;;4.00;;
7330;SDS011;3706;49.198;7.064;2022-12-22T07:32:01;12.90;;;3.70;;
7330;SDS011;3706;49.198;7.064;2022-12-22T07:34:28;15.13;;;4.00;;
7330;SDS011;3706;49.198;7.064;2022-12-22T07:36:55;14.20;;;3.37;;
7330;SDS011;3706;49.198;7.064;2022-12-22T07:39:22;15.73;;;3.53;;
7330;SDS011;3706;49.198;7.064;2022-12-22T07:41:48;18.27;;;4.13;;
7330;SDS011;3706;49.198;7.064;2022-12-22T07:44:34;17.43;;;4.47;;
7330;SDS011;3706;49.198;7.064;2022-12-22T07:47:01;17.80;;;4.33;;
7330;SDS011;3706;49.198;7.064;2022-12-22T07:49:28;19.67;;;4.37;;
7330;SDS011;3706;49.198;7.064;2022-12-22T07:52:12;15.90;;;3.27;;
7330;SDS011;3706;49.198;7.064;2022-12-22T07:54:39;16.33;;;3.50;;
7330;SDS011;3706;49.198;7.064;2022-12-22T07:57:06;19.60;;;5.07;;
7330;SDS011;3706;49.198;7.064;2022-12-22T07:59:34;17.57;;;4.67;;
7330;SDS011;3706;49.198;7.064;2022-12-22T08:02:01;22.27;;;4.73;;
7330;SDS011;3706;49.198;7.064;2022-12-22T08:04:28;19.60;;;3.83;;
7330;SDS011;3706;49.198;7.064;2022-12-22T08:06:55;19.23;;;3.93;;
7330;SDS011;3706;49.198;7.064;2022-12-22T08:09:22;15.63;;;3.57;;
7330;SDS011;3706;49.198;7.064;2022-12-22T08:11:49;12.60;;;3.10;;
7330;SDS011;3706;49.198;7.064;2022-12-22T08:14:16;13.37;;;3.40;;
7330;SDS011;3706;49.198;7.064;2022-12-22T08:16:44;16.97;;;3.33;;
7330;SDS011;3706;49.198;7.064;2022-12-22T08:19:11;17.03;;;3.33;;
7330;SDS011;3706;49.198;7.064;2022-12-22T08:21:38;8.87;;;2.67;;
7330;SDS011;3706;49.198;7.064;2022-12-22T08:24:05;11.50;;;2.80;;
7330;SDS011;3706;49.198;7.064;2022-12-22T08:26:33;13.17;;;3.43;;
7330;SDS011;3706;49.198;7.064;2022-12-22T08:29:05;12.30;;;3.63;;
7330;SDS011;3706;49.198;7.064;2022-12-22T08:31:35;8.63;;;2.50;;
7330;SDS011;3706;49.198;7.064;2022-12-22T08:34:04;9.97;;;2.80;;
7330;SDS011;3706;49.198;7.064;2022-12-22T08:36:33;5.97;;;2.33;;
7330;SDS011;3706;49.198;7.064;2022-12-22T08:39:04;9.83;;;2.70;;
7330;SDS011;3706;49.198;7.064;2022-12-22T08:41:31;6.67;;;2.13;;
7330;SDS011;3706;49.198;7.064;2022-12-22T08:44:15;10.00;;;2.27;;
7330;SDS011;3706;49.198;7.064;2022-12-22T08:46:43;6.83;;;2.00;;
7330;SDS011;3706;49.198;7.064;2022-12-22T08:49:11;6.43;;;1.77;;
7330;SDS011;3706;49.198;7.064;2022-12-22T08:51:38;10.03;;;2.23;;
7330;SDS011;3706;49.198;7.064;2022-12-22T08:54:05;7.20;;;1.90;;
7330;SDS011;3706;49.198;7.064;2022-12-22T08:56:32;7.47;;;2.00;;
7330;SDS011;3706;49.198;7.064;2022-12-22T08:59:00;5.97;;;2.17;;
7330;SDS011;3706;49.198;7.064;2022-12-22T09:01:29;6.67;;;1.73;;
7330;SDS011;3706;49.198;7.064;2022-12-22T09:03:58;5.60;;;1.50;;
7330;SDS011;3706;49.198;7.064;2022-12-22T09:06:26;6.20;;;2.00;;
7330;SDS011;3706;49.198;7.064;2022-12-22T09:08:54;4.77;;;1.77;;
7330;SDS011;3706;49.198;7.064;2022-12-22T09:11:21;7.50;;;1.90;;
7330;SDS011;3706;49.198;7.064;2022-12-22T09:13:49;4.57;;;1.90;;
7330;SDS011;3706;49.198;7.064;2022-12-22T09:16:17;5.27;;;1.90;;
7330;SDS011;3706;49.198;7.064;2022-12-22T09:18:45;2.43;;;1.23;;
7330;SDS011;3706;49.198;7.064;2022-12-22T09:21:12;6.10;;;1.50;;
7330;SDS011;3706;49.198;7.064;2022-12-22T09:23:41;10.07;;;1.67;;
7330;SDS011;3706;49.198;7.064;2022-12-22T09:26:09;2.53;;;1.20;;
7330;SDS011;3706;49.198;7.064;2022-12-22T09:28:37;3.83;;;1.10;;
7330;SDS011;3706;49.198;7.064;2022-12-22T09:31:04;3.30;;;1.40;;
7330;SDS011;3706;49.198;7.064;2022-12-22T09:33:32;4.50;;;1.27;;
7330;SDS011;3706;49.198;7.064;2022-12-22T09:36:03;6.77;;;1.57;;
7330;SDS011;3706;49.198;7.064;2022-12-22T09:38:31;1.77;;;0.80;;
7330;SDS011;3706;49.198;7.064;2022-12-22T09:40:59;3.73;;;1.40;;
7330;SDS011;3706;49.198;7.064;2022-12-22T09:43:33;4.07;;;1.50;;
7330;SDS011;3706;49.198;7.064;2022-12-22T09:46:00;5.70;;;1.60;;
7330;SDS011;3706;49.198;7.064;2022-12-22T09:48:28;2.93;;;1.10;;
7330;SDS011;3706;49.198;7.064;2022-12-22T09:51:01;4.67;;;1.73;;
7330;SDS011;3706;49.198;7.064;2022-12-22T09:53:29;3.37;;;1.40;;
7330;SDS011;3706;49.198;7.064;2022-12-22T09:55:57;3.53;;;1.57;;
7330;SDS011;3706;49.198;7.064;2022-12-22T09:58:26;2.63;;;1.43;;
7330;SDS011;3706;49.198;7.064;2022-12-22T10:00:58;3.33;;;1.20;;
7330;SDS011;3706;49.198;7.064;2022-12-22T10:03:34;3.17;;;1.57;;
7330;SDS011;3706;49.198;7.064;2022-12-22T10:06:09;1.53;;;1.10;;
7330;SDS011;3706;49.198;7.064;2022-12-22T10:08:39;4.87;;;1.10;;
7330;SDS011;3706;49.198;7.064;2022-12-22T10:11:10;2.63;;;1.10;;
7330;SDS011;3706;49.198;7.064;2022-12-22T10:13:39;2.57;;;0.93;;
7330;SDS011;3706;49.198;7.064;2022-12-22T10:16:19;3.57;;;1.47;;
7330;SDS011;3706;49.198;7.064;2022-12-22T10:18:53;2.70;;;0.87;;
7330;SDS011;3706;49.198;7.064;2022-12-22T10:21:22;1.20;;;0.73;;
7330;SDS011;3706;49.198;7.064;2022-12-22T10:23:50;1.80;;;0.93;;
7330;SDS011;3706;49.198;7.064;2022-12-22T10:26:20;1.13;;;0.70;;
7330;SDS011;3706;49.198;7.064;2022-12-22T10:28:51;2.20;;;0.90;;
7330;SDS011;3706;49.198;7.064;2022-12-22T10:31:22;3.10;;;0.80;;
7330;SDS011;3706;49.198;7.064;2022-12-22T10:33:52;1.77;;;0.77;;
7330;SDS011;3706;49.198;7.064;2022-12-22T10:36:21;2.83;;;0.93;;
7330;SDS011;3706;49.198;7.064;2022-12-22T10:38:52;0.90;;;0.77;;
7330;SDS011;3706;49.198;7.064;2022-12-22T10:41:25;0.50;;;0.50;;
7330;SDS011;3706;49.198;7.064;2022-12-22T10:43:54;1.17;;;0.70;;
7330;SDS011;3706;49.198;7.064;2022-12-22T10:46:29;2.77;;;0.77;;
7330;SDS011;3706;49.198;7.064;2022-12-22T10:49:16;1.80;;;0.73;;
7330;SDS011;3706;49.198;7.064;2022-12-22T10:51:46;0.57;;;0.50;;
7330;SDS011;3706;49.198;7.064;2022-12-22T10:54:28;1.67;;;0.50;;
7330;SDS011;3706;49.198;7.064;2022-12-22T10:56:59;2.57;;;0.93;;
7330;SDS011;3706;49.198;7.064;2022-12-22T10:59:28;2.33;;;0.90;;
7330;SDS011;3706;49.198;7.064;2022-12-22T11:02:00;3.50;;;0.80;;
7330;SDS011;3706;49.198;7.064;2022-12-22T11:04:53;1.27;;;0.83;;
7330;SDS011;3706;49.198;7.064;2022-12-22T11:07:27;0.90;;;0.80;;
7330;SDS011;3706;49.198;7.064;2022-12-22T11:09:55;1.23;;;0.60;;
7330;SDS011;3706;49.198;7.064;2022-12-22T11:12:24;2.47;;;1.10;;
7330;SDS011;3706;49.198;7.064;2022-12-22T11:15:04;2.83;;;0.73;;
7330;SDS011;3706;49.198;7.064;2022-12-22T11:17:41;1.37;;;0.70;;
7330;SDS011;3706;49.198;7.064;2022-12-22T11:20:24;0.67;;;0.30;;
7330;SDS011;3706;49.198;7.064;2022-12-22T11:23:06;0.60;;;0.60;;
7330;SDS011;3706;49.198;7.064;2022-12-22T11:25:39;0.30;;;0.30;;
7330;SDS011;3706;49.198;7.064;2022-12-22T11:31:16;0.87;;;0.67;;
7330;SDS011;3706;49.198;7.064;2022-12-22T11:33:54;1.87;;;1.03;;
7330;SDS011;3706;49.198;7.064;2022-12-22T11:36:33;1.43;;;0.90;;
7330;SDS011;3706;49.198;7.064;2022-12-22T11:39:12;2.10;;;0.90;;
7330;SDS011;3706;49.198;7.064;2022-12-22T11:41:44;2.33;;;0.90;;
7330;SDS011;3706;49.198;7.064;2022-12-22T11:44:27;0.57;;;0.47;;
7330;SDS011;3706;49.198;7.064;2022-12-22T11:47:04;2.20;;;1.00;;
7330;SDS011;3706;49.198;7.064;2022-12-22T11:49:52;1.17;;;0.83;;
7330;SDS011;3706;49.198;7.064;2022-12-22T11:52:45;1.40;;;0.50;;
7330;SDS011;3706;49.198;7.064;2022-12-22T11:55:23;1.73;;;1.40;;
7330;SDS011;3706;49.198;7.064;2022-12-22T11:57:57;2.10;;;0.93;;
7330;SDS011;3706;49.198;7.064;2022-12-22T12:00:41;2.00;;;0.90;;
7330;SDS011;3706;49.198;7.064;2022-12-22T12:03:28;1.60;;;0.77;;
7330;SDS011;3706;49.198;7.064;2022-12-22T12:09:16;1.73;;;1.30;;
7330;SDS011;3706;49.198;7.064;2022-12-22T12:11:55;1.50;;;0.87;;
7330;SDS011;3706;49.198;7.064;2022-12-22T12:14:30;2.73;;;1.20;;
7330;SDS011;3706;49.198;7.064;2022-12-22T12:17:06;1.80;;;1.03;;
7330;SDS011;3706;49.198;7.064;2022-12-22T12:19:55;1.60;;;1.50;;
7330;SDS011;3706;49.198;7.064;2022-12-22T12:22:39;1.00;;;0.80;;
7330;SDS011;3706;49.198;7.064;2022-12-22T12:25:20;2.17;;;1.17;;
7330;SDS011;3706;49.198;7.064;2022-12-22T12:27:56;2.97;;;1.40;;
7330;SDS011;3706;49.198;7.064;2022-12-22T12:30:43;2.30;;;1.27;;
7330;SDS011;3706;49.198;7.064;2022-12-22T12:33:17;1.53;;;0.97;;
7330;SDS011;3706;49.198;7.064;2022-12-22T12:35:55;4.30;;;1.20;;
7330;SDS011;3706;49.198;7.064;2022-12-22T12:38:30;0.63;;;0.63;;
7330;SDS011;3706;49.198;7.064;2022-12-22T12:41:04;3.37;;;1.40;;
7330;SDS011;3706;49.198;7.064;2022-12-22T12:43:37;4.80;;;1.80;;
7330;SDS011;3706;49.198;7.064;2022-12-22T12:49:13;2.13;;;1.50;;
7330;SDS011;3706;49.198;7.064;2022-12-22T12:55:30;3.97;;;1.17;;
7330;SDS011;3706;49.198;7.064;2022-12-22T12:57:58;3.77;;;1.60;;
7330;SDS011;3706;49.198;7.064;2022-12-22T13:00:40;4.40;;;1.80;;
7330;SDS011;3706;49.198;7.064;2022-12-22T13:03:11;4.17;;;1.53;;
7330;SDS011;3706;49.198;7.064;2022-12-22T13:06:00;3.23;;;1.00;;
7330;SDS011;3706;49.198;7.064;2022-12-22T13:08:29;3.03;;;1.53;;
7330;SDS011;3706;49.198;7.064;2022-12-22T13:13:57;3.47;;;1.47;;
7330;SDS011;3706;49.198;7.064;2022-12-22T13:16:29;2.27;;;1.20;;
7330;SDS011;3706;49.198;7.064;2022-12-22T13:21:52;3.40;;;1.47;;
7330;SDS011;3706;49.198;7.064;2022-12-22T13:24:28;1.87;;;1.27;;
7330;SDS011;3706;49.198;7.064;2022-12-22T13:27:03;2.67;;;1.83;;
7330;SDS011;3706;49.198;7.064;2022-12-22T13:29:38;4.07;;;1.57;;
7330;SDS011;3706;49.198;7.064;2022-12-22T13:32:14;4.47;;;1.67;;
7330;SDS011;3706;49.198;7.064;2022-12-22T13:34:45;6.97;;;2.10;;
7330;SDS011;3706;49.198;7.064;2022-12-22T13:37:20;9.57;;;2.97;;
7330;SDS011;3706;49.198;7.064;2022-12-22T13:40:09;5.70;;;2.10;;
7330;SDS011;3706;49.198;7.064;2022-12-22T13:42:39;6.80;;;2.40;;
7330;SDS011;3706;49.198;7.064;2022-12-22T13:45:21;9.43;;;2.83;;
7330;SDS011;3706;49.198;7.064;2022-12-22T13:47:54;12.13;;;3.67;;
7330;SDS011;3706;49.198;7.064;2022-12-22T13:50:22;13.80;;;4.13;;
7330;SDS011;3706;49.198;7.064;2022-12-22T13:52:52;23.83;;;5.27;;
7330;SDS011;3706;49.198;7.064;2022-12-22T13:55:22;24.53;;;5.30;;
7330;SDS011;3706;49.198;7.064;2022-12-22T13:57:51;24.47;;;4.93;;
7330;SDS011;3706;49.198;7.064;2022-12-22T14:00:20;18.37;;;5.00;;
7330;SDS011;3706;49.198;7.064;2022-12-22T14:02:49;30.27;;;6.40;;
7330;SDS011;3706;49.198;7.064;2022-12-22T14:05:16;27.53;;;6.87;;
7330;SDS011;3706;49.198;7.064;2022-12-22T14:07:58;33.97;;;7.50;;
7330;SDS011;3706;49.198;7.064;2022-12-22T14:10:27;31.27;;;6.77;;
7330;SDS011;3706;49.198;7.064;2022-12-22T14:12:56;28.27;;;6.57;;
7330;SDS011;3706;49.198;7.064;2022-12-22T14:15:26;37.50;;;7.90;;
7330;SDS011;3706;49.198;7.064;2022-12-22T14:17:53;38.50;;;8.97;;
7330;SDS011;3706;49.198;7.064;2022-12-22T14:20:22;35.93;;;7.63;;
7330;SDS011;3706;49.198;7.064;2022-12-22T14:22:53;30.23;;;6.67;;
7330;SDS011;3706;49.198;7.064;2022-12-22T14:25:24;35.33;;;7.33;;
7330;SDS011;3706;49.198;7.064;2022-12-22T14:27:55;36.83;;;7.57;;
7330;SDS011;3706;49.198;7.064;2022-12-22T14:30:23;26.07;;;6.30;;
7330;SDS011;3706;49.198;7.064;2022-12-22T14:32:53;31.23;;;7.17;;
7330;SDS011;3706;49.198;7.064;2022-12-22T14:35:26;29.83;;;6.97;;
7330;SDS011;3706;49.198;7.064;2022-12-22T14:38:06;35.67;;;7.80;;
7330;SDS011;3706;49.198;7.064;2022-12-22T14:40:45;30.13;;;7.10;;
7330;SDS011;3706;49.198;7.064;2022-12-22T14:43:19;33.53;;;7.43;;
7330;SDS011;3706;49.198;7.064;2022-12-22T14:45:59;37.80;;;7.63;;
7330;SDS011;3706;49.198;7.064;2022-12-22T14:48:29;28.87;;;6.53;;
7330;SDS011;3706;49.198;7.064;2022-12-22T14:50:58;23.00;;;6.60;;
7330;SDS011;3706;49.198;7.064;2022-12-22T14:53:29;33.63;;;7.33;;
7330;SDS011;3706;49.198;7.064;2022-12-22T14:56:04;26.97;;;6.60;;
7330;SDS011;3706;49.198;7.064;2022-12-22T14:58:38;33.00;;;7.53;;
7330;SDS011;3706;49.198;7.064;2022-12-22T15:01:14;38.53;;;6.97;;
7330;SDS011;3706;49.198;7.064;2022-12-22T15:03:55;27.13;;;5.17;;
7330;SDS011;3706;49.198;7.064;2022-12-22T15:06:35;29.57;;;6.13;;
7330;SDS011;3706;49.198;7.064;2022-12-22T15:11:52;27.03;;;6.70;;
7330;SDS011;3706;49.198;7.064;2022-12-22T15:14:21;29.63;;;7.67;;
7330;SDS011;3706;49.198;7.064;2022-12-22T15:16:50;27.83;;;7.00;;
7330;SDS011;3706;49.198;7.064;2022-12-22T15:19:21;30.93;;;7.43;;
7330;SDS011;3706;49.198;7.064;2022-12-22T15:21:48;29.83;;;6.53;;
7330;SDS011;3706;49.198;7.064;2022-12-22T15:24:16;25.67;;;5.90;;
7330;SDS011;3706;49.198;7.064;2022-12-22T15:26:44;27.07;;;6.13;;
7330;SDS011;3706;49.198;7.064;2022-12-22T15:29:13;26.40;;;6.63;;
7330;SDS011;3706;49.198;7.064;2022-12-22T15:31:40;34.87;;;7.83;;
7330;SDS011;3706;49.198;7.064;2022-12-22T15:34:10;28.57;;;7.00;;
7330;SDS011;3706;49.198;7.064;2022-12-22T15:36:39;28.93;;;6.47;;
7330;SDS011;3706;49.198;7.064;2022-12-22T15:39:10;32.03;;;7.40;;
7330;SDS011;3706;49.198;7.064;2022-12-22T15:41:40;30.73;;;6.93;;
7330;SDS011;3706;49.198;7.064;2022-12-22T15:44:08;31.53;;;7.20;;
7330;SDS011;3706;49.198;7.064;2022-12-22T15:46:36;25.60;;;6.73;;
7330;SDS011;3706;49.198;7.064;2022-12-22T15:49:05;31.37;;;7.93;;
7330;SDS011;3706;49.198;7.064;2022-12-22T15:51:36;26.27;;;6.73;;
7330;SDS011;3706;49.198;7.064;2022-12-22T15:54:03;29.10;;;6.40;;
7330;SDS011;3706;49.198;7.064;2022-12-22T15:56:30;34.40;;;7.30;;
7330;SDS011;3706;49.198;7.064;2022-12-22T15:58:58;28.23;;;6.97;;
7330;SDS011;3706;49.198;7.064;2022-12-22T16:01:26;35.30;;;7.67;;
7330;SDS011;3706;49.198;7.064;2022-12-22T16:03:54;32.00;;;7.40;;
7330;SDS011;3706;49.198;7.064;2022-12-22T16:06:21;27.07;;;6.07;;
7330;SDS011;3706;49.198;7.064;2022-12-22T16:08:48;28.50;;;6.97;;
7330;SDS011;3706;49.198;7.064;2022-12-22T16:11:18;30.10;;;7.07;;
7330;SDS011;3706;49.198;7.064;2022-12-22T16:13:45;34.00;;;7.60;;